createdAt,value
2023-02-06T00:01:45.947Z,10.60
2023-02-06T00:04:13.399Z,10.15
2023-02-06T00:06:40.745Z,9.98
2023-02-06T00:09:08.121Z,11.05
2023-02-06T00:11:35.447Z,10.95
2023-02-06T00:14:03.042Z,10.48
2023-02-06T00:16:31.746Z,10.50
2023-02-06T00:18:59.909Z,10.52
2023-02-06T00:21:27.603Z,10.65
2023-02-06T00:23:56.765Z,10.60
2023-02-06T00:26:24.387Z,10.73
2023-02-06T00:28:51.670Z,11.50
2023-02-06T00:31:19.107Z,11.45
2023-02-06T00:33:47.400Z,10.23
2023-02-06T00:36:14.857Z,10.60
2023-02-06T00:38:42.179Z,11.05
2023-02-06T00:41:09.529Z,11.20
2023-02-06T00:43:37.306Z,11.40
2023-02-06T00:46:04.775Z,11.35
2023-02-06T00:48:32.180Z,11.35
2023-02-06T00:50:59.564Z,10.82
2023-02-06T00:53:26.929Z,11.20
2023-02-06T00:55:54.295Z,10.57
2023-02-06T00:58:22.417Z,11.38
2023-02-06T01:00:49.780Z,11.32
2023-02-06T01:03:17.599Z,10.48
2023-02-06T01:05:44.880Z,11.32
2023-02-06T01:08:12.255Z,11.18
2023-02-06T01:10:43.257Z,11.07
2023-02-06T01:13:10.652Z,11.25
2023-02-06T01:15:38.094Z,11.57
2023-02-06T01:18:05.475Z,11.38
2023-02-06T01:20:33.827Z,11.57
2023-02-06T01:23:01.167Z,11.13
2023-02-06T01:25:28.532Z,11.70
2023-02-06T01:27:55.847Z,11.23
2023-02-06T01:30:23.824Z,11.88
2023-02-06T01:32:51.174Z,11.80
2023-02-06T01:35:18.599Z,11.30
2023-02-06T01:37:46.127Z,11.90
2023-02-06T01:40:14.916Z,11.48
2023-02-06T01:42:42.652Z,11.82
2023-02-06T01:45:44.193Z,12.07
2023-02-06T01:48:24.847Z,12.00
2023-02-06T01:50:54.187Z,12.02
2023-02-06T01:53:21.619Z,11.50
2023-02-06T01:55:49.538Z,11.85
2023-02-06T01:58:19.482Z,10.98
2023-02-06T02:00:46.877Z,11.63
2023-02-06T02:03:14.228Z,11.30
2023-02-06T02:05:41.631Z,11.95
2023-02-06T02:08:32.240Z,12.57
2023-02-06T02:11:00.415Z,11.77
2023-02-06T02:13:28.195Z,12.20
2023-02-06T02:16:03.518Z,12.25
2023-02-06T02:19:00.198Z,12.23
2023-02-06T02:21:47.933Z,12.15
2023-02-06T02:24:39.663Z,11.90
2023-02-06T02:27:25.724Z,12.05
2023-02-06T02:30:14.893Z,12.43
2023-02-06T02:33:26.165Z,12.82
2023-02-06T02:36:13.590Z,12.63
2023-02-06T02:38:57.625Z,12.05
2023-02-06T02:41:35.557Z,13.15
2023-02-06T02:44:11.336Z,12.45
2023-02-06T02:46:44.600Z,13.02
2023-02-06T02:49:23.948Z,12.68
2023-02-06T02:51:51.439Z,12.65
2023-02-06T02:54:18.756Z,12.95
2023-02-06T02:56:46.096Z,12.05
2023-02-06T02:59:19.180Z,13.27
2023-02-06T03:02:13.825Z,12.63
2023-02-06T03:04:50.818Z,12.65
2023-02-06T03:07:24.486Z,13.70
2023-02-06T03:10:06.354Z,13.25
2023-02-06T03:12:46.808Z,13.30
2023-02-06T03:15:37.426Z,13.30
2023-02-06T03:18:11.837Z,13.43
2023-02-06T03:23:12.575Z,12.35
2023-02-06T03:25:41.215Z,12.18
2023-02-06T03:28:14.267Z,13.07
2023-02-06T03:30:42.664Z,14.52
2023-02-06T03:33:10.908Z,12.48
2023-02-06T03:35:38.549Z,12.65
2023-02-06T03:38:06.545Z,13.27
2023-02-06T03:40:33.840Z,12.35
2023-02-06T03:43:02.595Z,13.05
2023-02-06T03:45:41.288Z,12.73
2023-02-06T03:48:11.432Z,13.18
2023-02-06T03:50:40.248Z,13.55
2023-02-06T03:53:07.570Z,12.73
2023-02-06T03:55:35.124Z,13.20
2023-02-06T03:58:05.402Z,13.07
2023-02-06T04:00:32.877Z,12.60
2023-02-06T04:03:00.209Z,12.73
2023-02-06T04:05:27.557Z,12.80
2023-02-06T04:07:56.687Z,12.40
2023-02-06T04:10:26.214Z,12.13
2023-02-06T04:12:53.976Z,12.13
2023-02-06T04:15:21.541Z,12.48
2023-02-06T04:17:59.582Z,11.77
2023-02-06T04:20:28.588Z,11.40
2023-02-06T04:22:56.204Z,11.57
2023-02-06T04:25:23.527Z,11.35
2023-02-06T04:27:50.890Z,11.07
2023-02-06T04:30:18.434Z,11.88
2023-02-06T04:32:45.899Z,11.82
2023-02-06T04:35:13.267Z,10.75
2023-02-06T04:37:40.642Z,11.77
2023-02-06T04:40:08.174Z,16.80
2023-02-06T04:42:35.571Z,12.50
2023-02-06T04:45:02.900Z,12.40
2023-02-06T04:47:30.201Z,12.93
2023-02-06T04:49:57.463Z,11.73
2023-02-06T04:52:24.784Z,12.07
2023-02-06T04:54:52.053Z,11.73
2023-02-06T04:57:19.343Z,12.20
2023-02-06T04:59:46.636Z,11.43
2023-02-06T05:02:13.964Z,11.90
2023-02-06T05:04:41.319Z,12.18
2023-02-06T05:07:08.607Z,12.10
2023-02-06T05:09:35.900Z,11.70
2023-02-06T05:12:03.457Z,11.43
2023-02-06T05:14:30.874Z,11.40
2023-02-06T05:16:58.178Z,11.57
2023-02-06T05:19:25.473Z,11.63
2023-02-06T05:21:52.806Z,12.40
2023-02-06T05:24:20.226Z,11.38
2023-02-06T05:26:47.617Z,12.30
2023-02-06T05:29:14.920Z,12.63
2023-02-06T05:31:42.255Z,11.82
2023-02-06T05:34:09.909Z,12.88
2023-02-06T05:36:37.265Z,11.15
2023-02-06T05:39:04.747Z,11.45
2023-02-06T05:41:32.104Z,12.65
2023-02-06T05:43:59.404Z,10.98
2023-02-06T05:46:26.837Z,28.75
2023-02-06T05:48:54.149Z,20.13
2023-02-06T05:51:21.484Z,32.03
2023-02-06T05:53:48.792Z,12.82
2023-02-06T05:56:16.113Z,12.80
2023-02-06T05:58:43.423Z,11.75
2023-02-06T06:01:11.847Z,11.65
2023-02-06T06:03:39.253Z,11.52
2023-02-06T06:06:07.068Z,11.63
2023-02-06T06:08:34.398Z,11.93
2023-02-06T06:11:02.750Z,12.43
2023-02-06T06:13:30.147Z,13.02
2023-02-06T06:15:57.479Z,11.88
2023-02-06T06:18:24.804Z,12.52
2023-02-06T06:20:52.141Z,12.45
2023-02-06T06:23:19.404Z,12.95
2023-02-06T06:25:47.285Z,13.25
2023-02-06T06:28:14.772Z,12.90
2023-02-06T06:30:42.099Z,12.95
2023-02-06T06:33:09.488Z,12.60
2023-02-06T06:35:37.351Z,12.68
2023-02-06T06:38:04.806Z,13.30
2023-02-06T06:40:32.218Z,13.38
2023-02-06T06:42:59.532Z,13.32
2023-02-06T06:45:27.176Z,13.20
2023-02-06T06:47:54.522Z,14.15
2023-02-06T06:50:21.850Z,13.20
2023-02-06T06:52:49.121Z,13.48
2023-02-06T06:55:16.527Z,13.80
2023-02-06T06:57:43.854Z,13.25
2023-02-06T07:00:11.699Z,13.40
2023-02-06T07:02:39.069Z,13.93
2023-02-06T07:05:06.684Z,14.40
2023-02-06T07:07:34.115Z,14.38
2023-02-06T07:10:01.471Z,14.18
2023-02-06T07:12:28.856Z,14.95
2023-02-06T07:14:56.177Z,14.25
2023-02-06T07:17:23.512Z,14.98
2023-02-06T07:19:52.478Z,14.50
2023-02-06T07:22:20.218Z,14.85
2023-02-06T07:24:47.667Z,14.70
2023-02-06T07:27:15.033Z,13.80
2023-02-06T07:29:42.345Z,14.32
2023-02-06T07:32:09.816Z,15.13
2023-02-06T07:34:37.160Z,15.85
2023-02-06T07:37:04.758Z,15.85
2023-02-06T07:39:32.055Z,15.00
2023-02-06T07:41:59.396Z,15.73
2023-02-06T07:44:32.789Z,16.30
2023-02-06T07:47:00.147Z,15.43
2023-02-06T07:49:27.553Z,15.40
2023-02-06T07:51:54.968Z,15.23
2023-02-06T07:54:22.390Z,15.90
2023-02-06T07:56:49.685Z,14.95
2023-02-06T07:59:17.019Z,14.57
2023-02-06T08:01:44.364Z,15.57
2023-02-06T08:04:11.776Z,15.55
2023-02-06T08:06:41.622Z,14.55
2023-02-06T08:09:13.673Z,14.48
2023-02-06T08:11:47.793Z,15.70
2023-02-06T08:14:15.286Z,15.43
2023-02-06T08:16:43.669Z,14.60
2023-02-06T08:19:12.318Z,15.82
2023-02-06T08:21:39.631Z,15.00
2023-02-06T08:24:07.180Z,13.93
2023-02-06T08:26:34.492Z,14.23
2023-02-06T08:29:02.951Z,14.15
2023-02-06T08:31:35.037Z,13.43
2023-02-06T08:34:02.547Z,14.98
2023-02-06T08:36:31.957Z,14.40
2023-02-06T08:38:59.816Z,15.73
2023-02-06T08:41:37.109Z,14.43
2023-02-06T08:44:11.718Z,14.02
2023-02-06T08:46:39.254Z,12.20
2023-02-06T08:49:11.203Z,13.15
2023-02-06T08:51:38.532Z,12.57
2023-02-06T08:54:08.133Z,11.82
2023-02-06T08:56:36.040Z,12.43
2023-02-06T08:59:04.157Z,11.77
2023-02-06T09:01:32.911Z,12.07
2023-02-06T09:04:02.630Z,13.45
2023-02-06T09:06:29.966Z,11.93
2023-02-06T09:08:57.393Z,11.32
2023-02-06T09:11:25.518Z,10.55
2023-02-06T09:13:55.319Z,10.20
2023-02-06T09:16:22.710Z,11.18
2023-02-06T09:18:53.941Z,10.25
2023-02-06T09:21:23.605Z,10.48
2023-02-06T09:23:55.854Z,10.07
2023-02-06T09:26:24.750Z,9.63
2023-02-06T09:28:57.212Z,8.50
2023-02-06T09:31:30.642Z,9.05
2023-02-06T09:34:00.284Z,7.43
2023-02-06T09:36:27.830Z,9.35
2023-02-06T09:38:57.203Z,9.88
2023-02-06T09:41:30.322Z,10.25
2023-02-06T09:44:11.742Z,9.37
2023-02-06T09:46:47.511Z,8.70
2023-02-06T09:49:21.077Z,7.40
2023-02-06T09:52:01.806Z,9.45
2023-02-06T09:54:42.232Z,8.55
2023-02-06T09:57:48.420Z,8.50
2023-02-06T10:00:41.916Z,7.18
2023-02-06T10:03:43.174Z,7.45
2023-02-06T10:06:39.250Z,7.82
2023-02-06T10:09:11.214Z,8.00
2023-02-06T10:12:06.624Z,8.48
2023-02-06T10:14:50.182Z,8.13
2023-02-06T10:17:21.948Z,8.15
2023-02-06T10:20:03.936Z,7.47
2023-02-06T10:22:32.831Z,7.30
2023-02-06T10:25:39.338Z,7.72
2023-02-06T10:28:26.066Z,7.95
2023-02-06T10:31:09.955Z,8.32
2023-02-06T10:34:01.370Z,8.35
2023-02-06T10:36:59.751Z,8.15
2023-02-06T10:39:55.133Z,7.32
2023-02-06T10:42:54.854Z,8.00
2023-02-06T10:45:38.335Z,8.32
2023-02-06T10:48:34.069Z,8.65
2023-02-06T10:51:09.180Z,7.88
2023-02-06T10:53:38.936Z,7.63
2023-02-06T10:56:11.078Z,7.75
2023-02-06T10:58:46.288Z,7.55
2023-02-06T11:01:25.607Z,7.70
2023-02-06T11:04:15.377Z,8.75
2023-02-06T11:06:42.883Z,7.80
2023-02-06T11:09:10.574Z,7.95
2023-02-06T11:11:40.340Z,7.38
2023-02-06T11:14:28.729Z,7.93
2023-02-06T11:16:57.777Z,8.15
2023-02-06T11:19:34.339Z,7.50
2023-02-06T11:22:04.823Z,7.13
2023-02-06T11:24:32.116Z,8.98
2023-02-06T11:27:01.309Z,7.18
2023-02-06T11:29:32.427Z,7.20
2023-02-06T11:32:01.013Z,7.45
2023-02-06T11:34:42.146Z,7.05
2023-02-06T11:37:38.454Z,6.72
2023-02-06T11:40:27.361Z,7.28
2023-02-06T11:43:15.128Z,7.22
2023-02-06T11:45:42.504Z,7.03
2023-02-06T11:48:45.571Z,7.35
2023-02-06T11:51:13.883Z,7.40
2023-02-06T11:53:57.955Z,7.47
2023-02-06T11:56:25.494Z,7.75
2023-02-06T11:59:07.068Z,7.63
2023-02-06T12:01:41.808Z,7.25
2023-02-06T12:04:17.180Z,7.28
2023-02-06T12:06:44.523Z,7.80
2023-02-06T12:09:12.625Z,7.70
2023-02-06T12:12:17.353Z,8.20
2023-02-06T12:15:46.170Z,7.72
2023-02-06T12:18:03.990Z,8.10
2023-02-06T12:20:32.672Z,7.88
2023-02-06T12:23:25.780Z,8.05
2023-02-06T12:25:58.008Z,8.05
2023-02-06T12:28:41.969Z,7.00
2023-02-06T12:31:16.272Z,7.93
2023-02-06T12:33:47.940Z,9.27
2023-02-06T12:36:22.571Z,8.13
2023-02-06T12:38:59.128Z,9.00
2023-02-06T12:41:39.105Z,8.68
2023-02-06T12:44:12.641Z,9.32
2023-02-06T12:46:40.000Z,8.40
2023-02-06T12:49:18.963Z,8.20
2023-02-06T12:51:59.667Z,9.18
2023-02-06T12:54:35.756Z,9.32
2023-02-06T12:57:06.442Z,9.40
2023-02-06T12:59:58.859Z,10.32
2023-02-06T13:02:45.830Z,9.48
2023-02-06T13:05:22.752Z,9.05
2023-02-06T13:07:50.268Z,8.63
2023-02-06T13:10:21.811Z,15.57
2023-02-06T13:12:58.700Z,9.18
2023-02-06T13:15:36.306Z,7.50
2023-02-06T13:18:29.441Z,9.48
2023-02-06T13:21:21.717Z,7.82
2023-02-06T13:24:16.237Z,8.98
2023-02-06T13:26:46.352Z,8.38
2023-02-06T13:29:27.214Z,8.52
2023-02-06T13:32:15.578Z,9.32
2023-02-06T13:34:53.843Z,8.35
2023-02-06T13:37:43.899Z,10.00
2023-02-06T13:40:32.173Z,9.55
2023-02-06T13:43:00.629Z,9.13
2023-02-06T13:45:32.171Z,10.00
2023-02-06T13:48:27.176Z,10.13
2023-02-06T13:50:57.350Z,10.60
2023-02-06T13:53:29.442Z,10.75
2023-02-06T13:56:12.691Z,10.23
2023-02-06T13:58:47.625Z,10.55
2023-02-06T14:01:22.913Z,9.75
2023-02-06T14:03:51.100Z,10.45
2023-02-06T14:06:32.599Z,11.13
2023-02-06T14:09:12.115Z,10.50
2023-02-06T14:12:31.198Z,10.27
2023-02-06T14:15:26.195Z,10.70
2023-02-06T14:18:05.599Z,9.15
2023-02-06T14:21:10.482Z,10.80
2023-02-06T14:23:58.782Z,10.43
2023-02-06T14:26:55.258Z,10.48
2023-02-06T14:29:40.573Z,10.48
2023-02-06T14:32:19.620Z,11.35
2023-02-06T14:34:58.984Z,10.13
2023-02-06T14:37:46.834Z,10.50
2023-02-06T14:40:25.304Z,10.13
2023-02-06T14:42:53.660Z,9.88
2023-02-06T14:45:41.655Z,10.15
2023-02-06T14:48:25.268Z,10.38
2023-02-06T14:50:56.794Z,8.90
2023-02-06T14:53:36.509Z,8.20
2023-02-06T14:56:14.709Z,9.63
2023-02-06T14:58:46.108Z,8.55
2023-02-06T15:01:17.774Z,8.75
2023-02-06T15:03:45.855Z,8.77
2023-02-06T15:06:34.149Z,8.63
2023-02-06T15:09:01.591Z,8.45
2023-02-06T15:11:33.080Z,8.13
2023-02-06T15:14:28.704Z,8.98
2023-02-06T15:17:02.918Z,9.10
2023-02-06T15:19:32.494Z,8.00
2023-02-06T15:22:07.323Z,8.27
2023-02-06T15:24:51.644Z,7.53
2023-02-06T15:27:29.854Z,8.15
2023-02-06T15:29:57.292Z,8.50
2023-02-06T15:32:38.866Z,8.32
2023-02-06T15:35:48.426Z,8.40
2023-02-06T15:38:15.759Z,7.90
2023-02-06T15:40:45.865Z,7.93
2023-02-06T15:43:18.778Z,8.57
2023-02-06T15:45:46.298Z,7.90
2023-02-06T15:48:27.869Z,7.93
2023-02-06T15:51:08.071Z,9.07
2023-02-06T15:53:36.413Z,9.80
2023-02-06T15:56:28.403Z,8.80
2023-02-06T15:59:00.422Z,9.68
2023-02-06T16:01:32.054Z,8.90
2023-02-06T16:04:03.451Z,8.65
2023-02-06T16:06:30.882Z,8.95
2023-02-06T16:09:00.215Z,9.20
2023-02-06T16:11:53.786Z,9.30
2023-02-06T16:14:34.732Z,9.35
2023-02-06T16:17:05.767Z,9.38
2023-02-06T16:19:56.146Z,8.38
2023-02-06T16:22:24.784Z,8.40
2023-02-06T16:24:53.304Z,8.88
2023-02-06T16:27:25.991Z,7.97
2023-02-06T16:29:55.027Z,8.18
2023-02-06T16:32:27.674Z,8.07
2023-02-06T16:34:55.520Z,7.88
2023-02-06T16:37:28.202Z,8.93
2023-02-06T16:39:55.786Z,8.30
2023-02-06T16:42:24.922Z,7.90
2023-02-06T16:45:01.772Z,9.15
2023-02-06T16:47:29.085Z,8.77
2023-02-06T16:49:56.370Z,8.40
2023-02-06T16:52:33.144Z,8.43
2023-02-06T16:55:00.594Z,9.43
2023-02-06T16:57:41.321Z,8.63
2023-02-06T17:00:16.028Z,8.80
2023-02-06T17:02:43.379Z,9.45
2023-02-06T17:05:10.855Z,9.20
2023-02-06T17:07:38.184Z,10.10
2023-02-06T17:10:05.980Z,9.93
2023-02-06T17:12:33.412Z,9.68
2023-02-06T17:15:00.768Z,9.82
2023-02-06T17:17:28.148Z,9.55
2023-02-06T17:19:55.902Z,10.45
2023-02-06T17:22:23.354Z,10.18
2023-02-06T17:24:50.657Z,10.25
2023-02-06T17:27:19.752Z,9.55
2023-02-06T17:29:47.797Z,9.77
2023-02-06T17:32:16.230Z,9.57
2023-02-06T17:34:43.653Z,9.35
2023-02-06T17:37:20.419Z,9.43
2023-02-06T17:39:49.518Z,8.85
2023-02-06T17:42:16.951Z,9.20
2023-02-06T17:44:44.630Z,9.10
2023-02-06T17:47:12.044Z,9.32
2023-02-06T17:49:39.438Z,10.48
2023-02-06T17:52:06.774Z,10.05
2023-02-06T17:54:34.164Z,9.82
2023-02-06T17:57:01.554Z,10.02
2023-02-06T17:59:29.014Z,10.18
2023-02-06T18:01:56.381Z,9.85
2023-02-06T18:04:24.656Z,9.90
2023-02-06T18:06:51.962Z,9.50
2023-02-06T18:09:19.482Z,9.45
2023-02-06T18:11:46.850Z,9.77
2023-02-06T18:14:14.149Z,9.40
2023-02-06T18:16:42.884Z,10.90
2023-02-06T18:19:10.466Z,9.48
2023-02-06T18:21:37.835Z,9.70
2023-02-06T18:24:05.635Z,9.95
2023-02-06T18:26:33.143Z,12.10
2023-02-06T18:29:04.188Z,10.80
2023-02-06T18:31:33.346Z,10.65
2023-02-06T18:34:02.551Z,10.82
2023-02-06T18:36:30.242Z,10.88
2023-02-06T18:38:57.641Z,11.10
2023-02-06T18:41:43.569Z,12.43
2023-02-06T18:44:11.118Z,10.82
2023-02-06T18:46:38.749Z,10.68
2023-02-06T18:49:06.192Z,12.23
2023-02-06T18:51:33.641Z,10.98
2023-02-06T18:54:00.964Z,11.25
2023-02-06T18:56:28.311Z,12.82
2023-02-06T18:58:56.057Z,12.50
2023-02-06T19:01:24.253Z,12.40
2023-02-06T19:03:52.468Z,11.70
2023-02-06T19:06:25.179Z,12.43
2023-02-06T19:08:52.535Z,12.27
2023-02-06T19:11:19.890Z,12.02
2023-02-06T19:13:47.222Z,11.20
2023-02-06T19:16:16.124Z,11.93
2023-02-06T19:18:45.224Z,10.77
2023-02-06T19:21:16.414Z,12.77
2023-02-06T19:23:44.845Z,11.77
2023-02-06T19:26:14.236Z,11.75
2023-02-06T19:28:41.762Z,12.48
2023-02-06T19:31:09.651Z,12.30
2023-02-06T19:33:37.786Z,12.57
2023-02-06T19:36:08.538Z,11.93
2023-02-06T19:38:35.849Z,12.82
2023-02-06T19:41:12.062Z,12.40
2023-02-06T19:43:39.603Z,12.60
2023-02-06T19:46:08.616Z,13.00
2023-02-06T19:48:35.981Z,12.93
2023-02-06T19:51:08.471Z,12.07
2023-02-06T19:53:36.317Z,12.57
2023-02-06T19:56:04.293Z,12.00
2023-02-06T19:58:32.082Z,12.57
2023-02-06T20:00:59.648Z,12.25
2023-02-06T20:03:27.136Z,13.55
2023-02-06T20:05:54.431Z,13.20
2023-02-06T20:08:21.727Z,13.95
2023-02-06T20:10:49.030Z,14.68
2023-02-06T20:13:16.334Z,14.95
2023-02-06T20:15:43.678Z,14.75
2023-02-06T20:18:11.012Z,13.95
2023-02-06T20:20:38.557Z,13.68
2023-02-06T20:23:07.066Z,15.27
2023-02-06T20:25:37.738Z,14.38
2023-02-06T20:28:05.300Z,13.85
2023-02-06T20:30:32.787Z,14.27
2023-02-06T20:33:00.564Z,14.20
2023-02-06T20:35:27.871Z,14.95
2023-02-06T20:37:55.217Z,16.33
2023-02-06T20:40:23.223Z,14.85
2023-02-06T20:42:50.545Z,16.08
2023-02-06T20:45:18.144Z,14.68
2023-02-06T20:47:45.486Z,14.95
2023-02-06T20:50:13.619Z,15.27
2023-02-06T20:52:41.019Z,15.18
2023-02-06T20:55:08.949Z,15.10
2023-02-06T20:57:36.499Z,14.98
2023-02-06T21:00:08.025Z,16.42
2023-02-06T21:02:35.877Z,15.45
2023-02-06T21:05:03.295Z,16.02
2023-02-06T21:07:30.718Z,14.80
2023-02-06T21:09:58.036Z,15.57
2023-02-06T21:12:25.499Z,15.05
2023-02-06T21:14:52.825Z,15.68
2023-02-06T21:17:20.200Z,16.17
2023-02-06T21:19:47.556Z,15.20
2023-02-06T21:22:14.876Z,15.45
2023-02-06T21:24:42.187Z,16.48
2023-02-06T21:27:09.473Z,15.38
2023-02-06T21:29:36.766Z,16.73
2023-02-06T21:32:13.631Z,16.13
2023-02-06T21:34:41.618Z,15.65
2023-02-06T21:37:09.074Z,15.88
2023-02-06T21:39:38.778Z,15.52
2023-02-06T21:42:06.284Z,17.05
2023-02-06T21:44:33.790Z,16.23
2023-02-06T21:47:01.359Z,16.77
2023-02-06T21:49:28.671Z,17.17
2023-02-06T21:51:58.669Z,15.88
2023-02-06T21:54:26.147Z,15.20
2023-02-06T21:56:53.751Z,16.98
2023-02-06T21:59:21.087Z,15.65
2023-02-06T22:01:48.439Z,16.02
2023-02-06T22:04:15.749Z,16.10
2023-02-06T22:06:43.663Z,16.35
2023-02-06T22:09:15.125Z,15.75
2023-02-06T22:11:43.166Z,16.80
2023-02-06T22:14:12.427Z,16.52
2023-02-06T22:16:39.950Z,17.30
2023-02-06T22:19:07.481Z,15.85
2023-02-06T22:21:35.042Z,16.73
2023-02-06T22:24:05.460Z,17.40
2023-02-06T22:26:34.217Z,16.75
2023-02-06T22:29:01.554Z,16.75
2023-02-06T22:31:30.481Z,17.02
2023-02-06T22:33:58.720Z,15.88
2023-02-06T22:36:27.519Z,16.52
2023-02-06T22:39:06.520Z,15.95
2023-02-06T22:41:34.973Z,16.40
2023-02-06T22:44:02.313Z,17.48
2023-02-06T22:46:32.704Z,17.30
2023-02-06T22:49:00.138Z,17.13
2023-02-06T22:51:27.651Z,18.05
2023-02-06T22:53:55.069Z,17.83
2023-02-06T22:56:37.277Z,18.20
2023-02-06T22:59:11.618Z,17.73
2023-02-06T23:01:47.354Z,17.98
2023-02-06T23:04:16.794Z,17.85
2023-02-06T23:06:44.427Z,17.80
2023-02-06T23:09:14.154Z,18.55
2023-02-06T23:11:41.583Z,19.08
2023-02-06T23:14:08.969Z,18.20
2023-02-06T23:16:36.326Z,18.17
2023-02-06T23:19:04.806Z,18.95
2023-02-06T23:21:33.589Z,18.88
2023-02-06T23:24:01.026Z,17.77
2023-02-06T23:26:28.377Z,19.00
2023-02-06T23:28:57.531Z,19.17
2023-02-06T23:31:25.897Z,17.70
2023-02-06T23:33:53.320Z,17.85
2023-02-06T23:36:21.820Z,19.10
2023-02-06T23:38:49.196Z,18.48
2023-02-06T23:41:24.528Z,19.30
2023-02-06T23:43:53.220Z,19.02
2023-02-06T23:46:20.885Z,18.52
2023-02-06T23:48:48.703Z,19.60
2023-02-06T23:51:16.732Z,19.60
2023-02-06T23:53:44.079Z,21.75
2023-02-06T23:56:20.573Z,20.10
2023-02-06T23:58:47.872Z,20.60
